Latest Weather Observations for Hopetoun Airport

IDV60801

Issued at 10:35 pm EDT Saturday 1 November 2014 (issued every 30 minutes, with the page automatically refreshed every 10 minutes)

About weather observations | Map of weather stations | Latest weather observations for VIC | Other Formats
Station Details ID: 077010 Name: HOPETOUN AIRPORT Lat: -35.72 Lon: 142.36 Height: 77.3 m
Data from the previous 72 hours. | See also: Recent months at Hopetoun Airport
Date/Time
EDT
Temp
°C
App
Temp
°C
Dew
Point
Rel
Hum
%
Delta-T
°C
Wind Press
QNH
hPa
Press
MSL
hPa
Rain
since 9 am
mm
Dir
 
Spd
km/h
Gust
km/h
Spd
kts
Gust
kts
01/10:30pm 10.9 4.9 3.2 59 3.4 SW 24 30 13 16 1020.2 1020.0 -
01/10:00pm 11.5 5.6 1.7 51 4.2 SW 22 32 12 17 1020.0 1019.8 -
01/09:30pm 12.3 6.0 1.3 47 4.7 SW 24 32 13 17 1019.4 1019.2 -
01/09:00pm 13.0 6.2 0.7 43 5.2 SW 26 35 14 19 1018.8 1018.6 0.0
01/08:30pm 13.8 6.0 -0.6 37 6.0 SW 30 39 16 21 1018.0 1017.8 -
01/08:00pm 14.4 6.2 -1.2 34 6.4 WSW 32 43 17 23 1017.3 1017.1 -
01/07:30pm 15.3 5.6 -2.2 30 7.1 SW 39 50 21 27 1016.6 1016.3 -
01/07:00pm 16.3 6.4 -0.8 31 7.2 SW 41 52 22 28 1015.8 1015.6 -
01/06:30pm 17.0 8.2 -1.1 29 7.6 SW 35 46 19 25 1015.2 1015.0 -
01/06:00pm 17.8 8.3 -0.9 28 8.0 SW 39 52 21 28 1014.5 1014.3 -
01/05:30pm 17.8 7.5 -1.4 27 8.1 WSW 43 54 23 29 1014.2 1014.0 -
01/05:10pm 18.2 8.3 -0.6 28 8.1 SW 41 61 22 33 1013.7 1013.5 -
01/05:00pm 18.1 8.1 -1.7 26 8.3 SSW 41 52 22 28 1013.5 1013.3 -
01/04:30pm 18.6 8.0 -1.8 25 8.6 WSW 44 54 24 29 1013.0 1012.8 -
01/04:00pm 18.9 8.4 -1.0 26 8.6 WSW 44 59 24 32 1012.7 1012.5 -
01/03:32pm 19.0 8.3 0.1 28 8.3 SW 46 65 25 35 1012.8 1012.6 -
01/03:30pm 19.3 7.8 -0.1 27 8.5 WSW 50 65 27 35 1012.5 1012.3 -
01/03:15pm 19.0 8.3 0.1 28 8.3 WSW 46 67 25 36 1012.5 1012.3 -
01/03:00pm 17.7 6.9 -0.5 29 7.8 WSW 46 63 25 34 1012.5 1012.3 0.0
01/02:32pm 18.5 8.3 1.1 31 7.8 WSW 44 63 24 34 1012.4 1012.2 -
01/02:30pm 18.3 7.9 1.8 33 7.5 SW 46 63 25 34 1012.4 1012.2 -
01/02:11pm 18.9 8.0 1.4 31 7.9 WSW 48 74 26 40 1012.0 1011.8 -
01/02:00pm 18.2 - 0.8 31 7.7 - - - - - 1011.9 1011.7 -
01/01:30pm 18.1 7.6 3.6 38 6.8 WSW 48 65 26 35 1011.8 1011.6 -
01/01:00pm 17.8 7.2 2.9 37 6.9 WSW 48 65 26 35 1011.5 1011.3 -
01/12:50pm 18.9 9.1 2.3 33 7.6 WSW 43 67 23 36 1011.1 1010.9 -
01/12:30pm 17.0 6.8 3.3 40 6.3 WSW 46 59 25 32 1011.4 1011.2 -
01/12:00pm 16.0 8.4 7.5 57 4.3 SW 37 56 20 30 1011.5 1011.3 -
01/11:54am 13.5 4.4 6.8 64 3.2 WSW 44 65 24 35 1011.7 1011.5 0.0
01/11:30am 14.8 5.6 5.6 54 4.4 WSW 43 57 23 31 1011.5 1011.3 0.0
01/11:00am 14.4 5.5 6.7 60 3.8 WSW 43 56 23 30 1011.1 1010.9 0.0
01/10:42am 15.2 6.2 6.2 55 4.4 SW 43 54 23 29 1010.6 1010.5 0.0
01/10:30am 14.3 5.3 6.6 60 3.7 WSW 43 52 23 28 1010.4 1010.3 0.0
01/10:00am 15.5 6.8 6.2 54 4.5 WSW 41 50 22 27 1009.9 1009.8 0.0
01/09:30am 15.2 7.5 7.0 58 4.0 SW 37 46 20 25 1009.5 1009.4 0.0
01/09:03am 14.7 8.3 8.4 66 3.2 SW 32 50 17 27 1009.1 1009.0 0.0
01/09:00am 14.0 6.5 8.0 67 3.0 SW 37 50 20 27 1009.1 1009.0 2.4
01/08:30am 13.4 7.3 9.6 78 2.0 SW 32 43 17 23 1008.4 1008.3 2.4
01/08:00am 13.1 6.7 10.6 85 1.3 SW 35 50 19 27 1007.7 1007.6 2.4
01/07:30am 13.1 6.7 10.8 86 1.2 SW 35 52 19 28 1007.0 1006.9 2.4
01/07:28am 13.3 6.5 10.7 84 1.4 SW 37 52 20 28 1006.9 1006.8 2.4
01/07:00am 13.5 8.7 11.7 89 1.0 W 28 37 15 20 1005.8 1005.7 2.4
01/06:30am 13.6 10.0 11.8 89 1.0 W 22 32 12 17 1005.4 1005.3 2.4
01/06:00am 13.7 10.2 12.1 90 0.9 W 22 32 12 17 1004.8 1004.7 2.4
01/05:30am 13.9 10.8 12.3 90 0.9 W 20 26 11 14 1004.7 1004.6 2.4
01/05:00am 13.9 11.1 12.6 92 0.7 W 19 26 10 14 1004.4 1004.3 2.4
01/04:30am 13.8 10.8 12.4 91 0.8 WSW 20 28 11 15 1004.2 1004.1 2.4
01/04:00am 14.0 8.4 12.0 88 1.1 WSW 33 39 18 21 1003.6 1003.5 2.2
01/03:30am 14.3 12.3 12.7 90 0.9 W 15 19 8 10 1003.4 1003.3 2.0
01/03:00am 14.7 12.3 12.6 87 1.2 W 17 20 9 11 1003.1 1003.0 1.2
01/02:30am 15.7 12.7 11.9 78 2.1 WSW 19 24 10 13 1002.0 1001.9 0.0
01/02:00am 17.1 13.0 10.0 63 3.8 SSW 22 30 12 16 1001.7 1001.6 0.0
01/01:30am 17.5 13.3 9.9 61 4.0 SW 22 30 12 16 1002.5 1002.4 0.0
01/01:00am 17.7 11.1 10.1 61 4.1 SW 35 48 19 26 1002.0 1001.9 0.0
01/12:43am 18.2 12.2 10.8 62 4.0 SW 33 54 18 29 1002.2 1002.1 0.0
01/12:30am 18.3 11.1 10.7 61 4.1 SW 39 54 21 29 1002.4 1002.3 0.0
01/12:04am 19.9 12.9 11.4 58 4.7 WSW 39 57 21 31 1002.1 1002.0 0.0
01/12:00am 20.1 12.3 11.3 57 4.9 WSW 43 57 23 31 1002.0 1001.9 0.0
 
Date/Time
EDT
Temp
°C
App
Temp
°C
Dew
Point
Rel
Hum
%
Delta-T
°C
Wind Press
QNH
hPa
Press
MSL
hPa
Rain
since 9 am
mm
Dir
 
Spd
km/h
Gust
km/h
Spd
kts
Gust
kts
31/11:30pm 23.1 14.9 8.4 39 7.8 WSW 41 54 22 29 1001.1 1001.0 0.0
31/11:25pm 23.9 16.9 8.3 37 8.3 WSW 35 54 19 29 1001.1 1001.0 0.0
31/11:00pm 24.5 18.8 6.7 32 9.3 WSW 26 33 14 18 1000.5 1000.4 0.0
31/10:30pm 25.7 18.2 4.2 25 10.8 SW 33 46 18 25 999.7 999.6 0.0
31/10:00pm 27.8 19.5 4.2 22 12.1 WSW 37 54 20 29 999.0 998.9 0.0
31/09:56pm 28.9 22.1 3.0 19 13.0 WSW 28 50 15 27 998.7 998.6 0.0
31/09:30pm 27.8 23.4 0.5 17 13.0 N 13 17 7 9 997.7 997.6 0.0
31/09:00pm 29.2 24.4 -0.1 15 14.0 N 15 19 8 10 997.9 997.8 0.0
31/08:30pm 29.7 24.0 -0.6 14 14.3 N 19 22 10 12 998.1 998.0 0.0
31/08:00pm 31.9 26.3 0.1 13 15.6 N 19 20 10 11 998.1 998.0 0.0
31/07:30pm 33.0 26.6 0.9 13 15.9 NW 24 30 13 16 998.2 998.1 0.0
31/07:15pm 33.6 26.1 1.4 13 16.2 NW 30 50 16 27 998.2 998.1 0.0
31/07:00pm 33.5 26.2 0.2 12 16.5 NW 28 35 15 19 998.3 998.2 0.0
31/06:30pm 34.3 25.8 0.8 12 16.7 NW 35 46 19 25 998.4 998.3 0.0
31/06:00pm 34.5 24.7 -0.2 11 17.2 NNW 41 54 22 29 998.8 998.7 0.0
31/05:30pm 35.0 25.6 0.2 11 17.3 NW 39 50 21 27 999.3 999.2 0.0
31/05:00pm 35.9 27.6 -0.5 10 18.1 NNW 33 54 18 29 999.7 999.6 0.0
31/04:59pm 36.0 27.7 -0.4 10 18.0 NW 33 54 18 29 999.6 999.5 0.0
31/04:30pm 35.9 27.2 -0.5 10 18.0 NW 35 50 19 27 1000.3 1000.2 0.0
31/04:00pm 34.0 25.1 -1.9 10 17.2 NW 35 46 19 25 1000.8 1000.7 0.0
31/03:42pm 34.4 24.8 -1.6 10 17.3 NW 39 59 21 32 1000.9 1000.8 0.0
31/03:30pm 35.2 26.0 -1.0 10 17.7 WNW 37 50 20 27 1001.1 1001.0 0.0
31/03:29pm 35.3 26.2 -0.9 10 17.7 WNW 37 57 20 31 1001.1 1001.0 0.0
31/03:19pm 35.4 25.1 -0.8 10 17.7 NW 43 54 23 29 1001.1 1001.0 0.0
31/03:08pm 36.1 27.0 -0.3 10 18.1 NNW 37 52 20 28 1001.3 1001.2 0.0
31/03:00pm 35.0 26.6 -1.1 10 17.6 NW 33 46 18 25 1001.7 1001.6 0.0
31/02:32pm 35.9 27.4 0.9 11 17.7 NNW 35 54 19 29 1002.4 1002.3 0.0
31/02:30pm 35.7 26.8 0.7 11 17.6 NNW 37 54 20 29 1002.4 1002.3 0.0
31/02:25pm 34.9 24.6 0.1 11 17.3 NNW 44 65 24 35 1002.5 1002.4 0.0
31/02:20pm 35.4 22.9 0.5 11 17.5 NNW 56 65 30 35 1002.3 1002.2 0.0
31/02:18pm 35.5 27.5 0.6 11 17.5 NW 32 61 17 33 1002.5 1002.4 0.0
31/02:00pm 34.0 26.8 0.6 12 16.7 NNW 28 41 15 22 1003.1 1003.0 0.0
31/01:30pm 34.1 26.3 1.8 13 16.4 N 32 43 17 23 1003.6 1003.5 0.0
31/01:00pm 32.1 25.0 1.3 14 15.4 N 28 46 15 25 1004.5 1004.4 0.0
31/12:30pm 31.5 24.9 1.8 15 14.8 N 26 37 14 20 1005.4 1005.3 0.0
31/12:00pm 30.0 23.3 1.5 16 14.1 NNE 26 41 14 22 1006.3 1006.2 0.0
31/11:30am 28.5 21.4 1.1 17 13.2 NNE 28 41 15 22 1006.9 1006.8 0.0
31/11:00am 27.4 20.6 1.0 18 12.7 NNE 26 37 14 20 1007.6 1007.5 0.0
31/10:30am 25.8 20.0 2.5 22 11.3 NNE 22 30 12 16 1008.0 1007.9 0.0
31/10:00am 24.2 18.5 2.9 25 10.3 NE 22 30 12 16 1008.2 1008.1 0.0
31/09:30am 21.9 16.7 3.6 30 8.8 NE 20 28 11 15 1008.7 1008.6 0.0
31/09:00am 19.4 14.8 3.6 35 7.5 NE 17 20 9 11 1009.2 1009.1 0.0
31/08:30am 17.6 12.5 3.1 38 6.7 NE 19 26 10 14 1009.4 1009.3 -
31/08:00am 16.7 13.3 4.1 43 5.9 ENE 11 20 6 11 1009.5 1009.4 -
31/07:30am 12.0 9.4 3.0 54 4.0 E 6 7 3 4 1009.7 1009.6 -
31/07:00am 11.2 8.4 3.0 57 3.6 E 7 9 4 5 1009.9 1009.8 -
31/06:30am 11.4 8.6 3.4 58 3.5 ESE 7 9 4 5 1009.7 1009.6 -
31/06:00am 11.1 8.3 3.4 59 3.4 ESE 7 9 4 5 1009.5 1009.4 -
31/05:30am 10.3 7.4 2.7 59 3.3 ESE 7 9 4 5 1009.6 1009.5 -
31/05:00am 9.4 6.4 0.8 55 3.5 E 6 7 3 4 1009.7 1009.6 -
31/04:30am 10.8 8.1 2.6 57 3.5 SE 6 7 3 4 1009.9 1009.8 -
31/04:00am 10.0 7.7 0.6 52 3.9 E 2 4 1 2 1010.0 1009.9 -
31/03:30am 9.9 7.1 -0.6 48 4.2 ESE 4 4 2 2 1010.2 1010.1 -
31/03:00am 12.8 10.6 3.2 52 4.3 E 4 6 2 3 1010.6 1010.5 0.0
31/02:30am 14.5 11.3 3.3 47 5.1 S 9 13 5 7 1010.6 1010.5 -
31/02:00am 14.3 11.8 3.5 48 4.9 SSE 6 9 3 5 1011.0 1010.9 -
31/01:30am 15.2 12.0 3.0 44 5.5 S 9 11 5 6 1011.5 1011.4 -
31/01:00am 15.4 11.7 2.6 42 5.8 S 11 13 6 7 1011.8 1011.7 -
31/12:30am 15.1 11.6 1.3 39 6.0 S 9 11 5 6 1012.0 1011.9 -
31/12:00am 17.5 14.7 3.0 38 6.7 S 7 9 4 5 1012.2 1012.1 -
 
Date/Time
EDT
Temp
°C
App
Temp
°C
Dew
Point
Rel
Hum
%
Delta-T
°C
Wind Press
QNH
hPa
Press
MSL
hPa
Rain
since 9 am
mm
Dir
 
Spd
km/h
Gust
km/h
Spd
kts
Gust
kts
30/11:30pm 15.6 12.6 1.0 37 6.4 SSE 6 7 3 4 1012.3 1012.2 -
30/11:00pm 18.3 15.5 1.8 33 7.5 S 6 9 3 5 1012.5 1012.4 -
30/10:30pm 19.9 16.6 2.3 31 8.2 S 9 11 5 6 1012.6 1012.5 -
30/10:00pm 19.5 16.4 1.5 30 8.2 S 7 9 4 5 1012.6 1012.5 -
30/09:30pm 21.4 18.4 2.2 28 9.0 S 7 9 4 5 1012.3 1012.2 -
30/09:00pm 21.7 18.7 1.9 27 9.2 S 7 9 4 5 1012.3 1012.2 -
30/08:30pm 23.2 19.6 0.9 23 10.3 S 9 11 5 6 1012.0 1011.9 -
30/08:00pm 23.8 20.1 0.2 21 10.8 SSW 9 11 5 6 1011.8 1011.7 -
30/07:30pm 25.8 21.4 0.5 19 11.9 SW 13 19 7 10 1011.7 1011.6 -
30/07:00pm 26.5 21.4 1.0 19 12.1 SW 17 22 9 12 1011.7 1011.6 -
30/06:30pm 27.2 23.2 0.8 18 12.6 SW 11 20 6 11 1011.6 1011.5 -
30/06:00pm 27.4 - 1.0 18 12.6 - - - - - 1011.6 1011.5 -
30/05:30pm 27.4 23.1 1.0 18 12.6 W 13 24 7 13 1011.7 1011.6 -
30/05:00pm 27.5 22.2 1.8 19 12.5 SW 19 28 10 15 1011.9 1011.8 -
30/04:30pm 27.5 22.3 2.6 20 12.3 W 19 32 10 17 1012.1 1012.0 -
30/04:00pm 26.4 21.2 2.3 21 11.7 WSW 19 26 10 14 1012.4 1012.3 -
30/03:30pm 25.8 20.8 3.7 24 11.0 W 19 24 10 13 1012.8 1012.7 -
30/03:00pm 25.3 22.1 5.0 27 10.3 SSW 11 24 6 13 1013.2 1013.1 0.0
30/02:30pm 23.9 21.1 5.3 30 9.4 WSW 9 20 5 11 1013.8 1013.8 -
30/02:00pm 24.1 19.9 5.5 30 9.4 SW 17 28 9 15 1014.1 1014.1 -
30/01:30pm 22.8 19.6 5.3 32 8.8 SSW 11 19 6 10 1014.5 1014.5 -
30/01:00pm 22.4 19.8 6.2 35 8.2 SW 9 19 5 10 1014.7 1014.7 -
30/12:30pm 21.2 18.3 6.3 38 7.5 WSW 11 19 6 10 1015.1 1015.1 -
30/12:00pm 20.3 16.2 6.3 40 7.0 WSW 17 26 9 14 1015.5 1015.5 -
30/11:30am 19.2 17.2 7.3 46 6.1 WSW 7 15 4 8 1015.7 1015.7 0.0
30/11:00am 18.6 16.8 7.1 47 5.8 SSW 6 11 3 6 1015.9 1015.9 0.0
30/10:30am 17.5 15.3 7.8 53 4.9 SSW 9 15 5 8 1016.5 1016.4 0.0
30/10:00am 16.8 14.8 8.5 58 4.3 S 9 17 5 9 1016.5 1016.4 0.0
30/09:00am 15.1 11.9 8.6 65 3.3 S 15 20 8 11 1016.7 1016.6 0.0
30/08:30am 13.5 10.0 8.8 73 2.4 S 17 22 9 12 1016.7 1016.6 -
30/08:00am 12.0 9.5 8.3 78 1.8 SSW 11 17 6 9 1016.0 1016.0 -
30/07:30am 10.4 8.8 7.8 84 1.3 SSW 6 7 3 4 1015.8 1015.8 -
30/07:00am 8.3 6.3 6.3 87 0.9 SSW 6 6 3 3 1015.5 1015.5 -
30/06:30am 9.2 6.9 7.3 88 0.9 SSW 9 13 5 7 1015.6 1015.6 -
30/06:00am 9.2 5.8 7.5 89 0.8 SSW 15 19 8 10 1015.8 1015.8 -
30/05:30am 8.6 5.7 6.6 87 0.9 SSW 11 13 6 7 1015.2 1015.2 -
30/05:00am 8.1 6.0 5.7 85 1.1 SW 6 6 3 3 1015.1 1015.1 -
30/04:30am 8.4 6.2 5.3 81 1.4 SW 6 7 3 4 1015.0 1015.0 -
30/04:00am 9.0 6.7 5.6 79 1.5 SW 7 9 4 5 1014.9 1014.9 -
30/03:30am 10.1 7.9 6.3 77 1.8 SSW 7 9 4 5 1015.1 1015.1 -
30/03:00am 10.7 8.2 6.6 76 1.9 SW 9 11 5 6 1015.2 1015.2 -
30/02:30am 12.0 9.6 7.1 72 2.4 SSW 9 11 5 6 1015.3 1015.3 -
30/02:00am 12.5 9.8 7.4 71 2.5 SSW 11 13 6 7 1015.5 1015.5 -
30/01:30am 13.1 10.7 7.1 67 2.9 SSW 9 11 5 6 1015.6 1015.6 -
30/01:00am 13.3 10.8 6.6 64 3.2 SSW 9 11 5 6 1015.9 1015.9 -
30/12:30am 14.3 12.3 7.1 62 3.5 SSW 7 9 4 5 1015.9 1015.9 -
30/12:00am 15.6 13.3 7.4 58 4.1 SSW 9 13 5 7 1015.9 1015.9 -
 
Date/Time
EDT
Temp
°C
App
Temp
°C
Dew
Point
Rel
Hum
%
Delta-T
°C
Wind Press
QNH
hPa
Press
MSL
hPa
Rain
since 9 am
mm
Dir
 
Spd
km/h
Gust
km/h
Spd
kts
Gust
kts
29/11:30pm 17.1 14.1 7.7 54 4.8 S 13 19 7 10 1015.8 1015.8 -
29/11:00pm 17.9 14.9 7.6 51 5.2 S 13 19 7 10 1015.8 1015.8 -

Other Formats:

Comma delimited format used in spreadsheet applications
http://www.bom.gov.au/fwo/IDV60801/IDV60801.94838.axf

JavaScript Object Notation format (JSON) in row-major order
http://www.bom.gov.au/fwo/IDV60801/IDV60801.94838.json